sensor_id;sensor_type;location;lat;lon;timestamp;P1;durP1;ratioP1;P2;durP2;ratioP2
31282;SDS011;17915;52.540;13.604;2023-04-21T00:01:11;13.37;;;7.53;;
31282;SDS011;17915;52.540;13.604;2023-04-21T00:03:37;10.27;;;6.00;;
31282;SDS011;17915;52.540;13.604;2023-04-21T00:06:03;11.43;;;6.90;;
31282;SDS011;17915;52.540;13.604;2023-04-21T00:08:33;9.27;;;6.45;;
31282;SDS011;17915;52.540;13.604;2023-04-21T00:11:04;16.02;;;7.32;;
31282;SDS011;17915;52.540;13.604;2023-04-21T00:13:30;13.93;;;6.72;;
31282;SDS011;17915;52.540;13.604;2023-04-21T00:15:58;10.53;;;5.67;;
31282;SDS011;17915;52.540;13.604;2023-04-21T00:18:33;22.77;;;7.05;;
31282;SDS011;17915;52.540;13.604;2023-04-21T00:20:58;16.90;;;7.47;;
31282;SDS011;17915;52.540;13.604;2023-04-21T00:23:24;25.73;;;7.77;;
31282;SDS011;17915;52.540;13.604;2023-04-21T00:25:49;7.30;;;5.80;;
31282;SDS011;17915;52.540;13.604;2023-04-21T00:28:16;16.35;;;7.13;;
31282;SDS011;17915;52.540;13.604;2023-04-21T00:30:41;16.63;;;7.77;;
31282;SDS011;17915;52.540;13.604;2023-04-21T00:33:07;13.97;;;5.77;;
31282;SDS011;17915;52.540;13.604;2023-04-21T00:35:32;18.03;;;7.67;;
31282;SDS011;17915;52.540;13.604;2023-04-21T00:37:57;19.43;;;7.73;;
31282;SDS011;17915;52.540;13.604;2023-04-21T00:40:23;19.10;;;7.70;;
31282;SDS011;17915;52.540;13.604;2023-04-21T00:42:48;11.37;;;6.93;;
31282;SDS011;17915;52.540;13.604;2023-04-21T00:45:14;12.57;;;7.23;;
31282;SDS011;17915;52.540;13.604;2023-04-21T00:47:39;18.67;;;7.73;;
31282;SDS011;17915;52.540;13.604;2023-04-21T00:50:05;19.33;;;7.35;;
31282;SDS011;17915;52.540;13.604;2023-04-21T00:52:31;13.37;;;6.57;;
31282;SDS011;17915;52.540;13.604;2023-04-21T00:54:58;14.25;;;7.97;;
31282;SDS011;17915;52.540;13.604;2023-04-21T00:57:24;18.15;;;8.30;;
31282;SDS011;17915;52.540;13.604;2023-04-21T00:59:49;13.40;;;6.70;;
31282;SDS011;17915;52.540;13.604;2023-04-21T01:02:15;12.50;;;7.95;;
31282;SDS011;17915;52.540;13.604;2023-04-21T01:04:42;14.03;;;7.77;;
31282;SDS011;17915;52.540;13.604;2023-04-21T01:07:07;18.10;;;8.80;;
31282;SDS011;17915;52.540;13.604;2023-04-21T01:09:34;24.70;;;9.30;;
31282;SDS011;17915;52.540;13.604;2023-04-21T01:12:00;9.87;;;7.27;;
31282;SDS011;17915;52.540;13.604;2023-04-21T01:14:32;20.73;;;8.43;;
31282;SDS011;17915;52.540;13.604;2023-04-21T01:16:58;18.47;;;9.60;;
31282;SDS011;17915;52.540;13.604;2023-04-21T01:19:23;24.07;;;9.37;;
31282;SDS011;17915;52.540;13.604;2023-04-21T01:21:50;13.82;;;7.00;;
31282;SDS011;17915;52.540;13.604;2023-04-21T01:24:21;12.00;;;7.72;;
31282;SDS011;17915;52.540;13.604;2023-04-21T01:26:48;17.52;;;8.15;;
31282;SDS011;17915;52.540;13.604;2023-04-21T01:29:14;16.17;;;9.23;;
31282;SDS011;17915;52.540;13.604;2023-04-21T01:31:40;17.08;;;7.43;;
31282;SDS011;17915;52.540;13.604;2023-04-21T01:34:06;15.15;;;9.15;;
31282;SDS011;17915;52.540;13.604;2023-04-21T01:36:31;12.47;;;8.43;;
31282;SDS011;17915;52.540;13.604;2023-04-21T01:38:57;24.00;;;10.37;;
31282;SDS011;17915;52.540;13.604;2023-04-21T01:41:22;15.00;;;8.07;;
31282;SDS011;17915;52.540;13.604;2023-04-21T01:43:47;9.93;;;7.80;;
31282;SDS011;17915;52.540;13.604;2023-04-21T01:46:13;13.63;;;10.13;;
31282;SDS011;17915;52.540;13.604;2023-04-21T01:48:38;20.23;;;9.53;;
31282;SDS011;17915;52.540;13.604;2023-04-21T01:51:04;16.27;;;9.47;;
31282;SDS011;17915;52.540;13.604;2023-04-21T01:53:29;23.43;;;8.53;;
31282;SDS011;17915;52.540;13.604;2023-04-21T01:55:55;16.97;;;8.37;;
31282;SDS011;17915;52.540;13.604;2023-04-21T01:58:20;20.47;;;8.50;;
31282;SDS011;17915;52.540;13.604;2023-04-21T02:00:46;15.27;;;8.20;;
31282;SDS011;17915;52.540;13.604;2023-04-21T02:03:11;13.33;;;9.00;;
31282;SDS011;17915;52.540;13.604;2023-04-21T02:05:36;15.63;;;8.87;;
31282;SDS011;17915;52.540;13.604;2023-04-21T02:08:02;12.90;;;7.57;;
31282;SDS011;17915;52.540;13.604;2023-04-21T02:10:27;16.33;;;9.37;;
31282;SDS011;17915;52.540;13.604;2023-04-21T02:12:52;16.27;;;8.60;;
31282;SDS011;17915;52.540;13.604;2023-04-21T02:15:18;15.60;;;9.20;;
31282;SDS011;17915;52.540;13.604;2023-04-21T02:17:43;15.47;;;9.30;;
31282;SDS011;17915;52.540;13.604;2023-04-21T02:20:09;18.00;;;8.83;;
31282;SDS011;17915;52.540;13.604;2023-04-21T02:22:36;20.98;;;9.43;;
31282;SDS011;17915;52.540;13.604;2023-04-21T02:25:02;21.33;;;9.75;;
31282;SDS011;17915;52.540;13.604;2023-04-21T02:27:28;13.50;;;7.95;;
31282;SDS011;17915;52.540;13.604;2023-04-21T02:29:54;13.23;;;9.60;;
31282;SDS011;17915;52.540;13.604;2023-04-21T02:32:19;18.30;;;9.13;;
31282;SDS011;17915;52.540;13.604;2023-04-21T02:34:44;14.03;;;9.87;;
31282;SDS011;17915;52.540;13.604;2023-04-21T02:37:10;17.20;;;7.83;;
31282;SDS011;17915;52.540;13.604;2023-04-21T02:39:35;17.70;;;10.77;;
31282;SDS011;17915;52.540;13.604;2023-04-21T02:42:01;15.43;;;8.97;;
31282;SDS011;17915;52.540;13.604;2023-04-21T02:44:26;17.57;;;9.63;;
31282;SDS011;17915;52.540;13.604;2023-04-21T02:46:52;15.27;;;10.33;;
31282;SDS011;17915;52.540;13.604;2023-04-21T02:49:17;15.57;;;8.37;;
31282;SDS011;17915;52.540;13.604;2023-04-21T02:51:42;13.23;;;8.80;;
31282;SDS011;17915;52.540;13.604;2023-04-21T02:54:08;16.07;;;9.77;;
31282;SDS011;17915;52.540;13.604;2023-04-21T02:56:33;17.17;;;10.13;;
31282;SDS011;17915;52.540;13.604;2023-04-21T02:58:59;17.07;;;9.60;;
31282;SDS011;17915;52.540;13.604;2023-04-21T03:01:24;12.23;;;8.80;;
31282;SDS011;17915;52.540;13.604;2023-04-21T03:03:50;16.87;;;9.93;;
31282;SDS011;17915;52.540;13.604;2023-04-21T03:06:16;9.80;;;7.53;;
31282;SDS011;17915;52.540;13.604;2023-04-21T03:08:41;13.90;;;8.97;;
31282;SDS011;17915;52.540;13.604;2023-04-21T03:11:07;12.53;;;8.37;;
31282;SDS011;17915;52.540;13.604;2023-04-21T03:13:32;15.40;;;9.47;;
31282;SDS011;17915;52.540;13.604;2023-04-21T03:15:57;25.77;;;9.37;;
31282;SDS011;17915;52.540;13.604;2023-04-21T03:18:23;15.20;;;9.80;;
31282;SDS011;17915;52.540;13.604;2023-04-21T03:20:48;12.87;;;7.97;;
31282;SDS011;17915;52.540;13.604;2023-04-21T03:23:13;20.53;;;11.03;;
31282;SDS011;17915;52.540;13.604;2023-04-21T03:25:40;17.77;;;8.98;;
31282;SDS011;17915;52.540;13.604;2023-04-21T03:28:05;15.43;;;9.60;;
31282;SDS011;17915;52.540;13.604;2023-04-21T03:30:31;17.27;;;9.83;;
31282;SDS011;17915;52.540;13.604;2023-04-21T03:32:56;25.53;;;12.10;;
31282;SDS011;17915;52.540;13.604;2023-04-21T03:35:22;12.88;;;9.30;;
31282;SDS011;17915;52.540;13.604;2023-04-21T03:37:48;26.77;;;10.20;;
31282;SDS011;17915;52.540;13.604;2023-04-21T03:40:13;17.73;;;11.70;;
31282;SDS011;17915;52.540;13.604;2023-04-21T03:42:39;12.57;;;8.80;;
31282;SDS011;17915;52.540;13.604;2023-04-21T03:45:05;18.63;;;10.00;;
31282;SDS011;17915;52.540;13.604;2023-04-21T03:47:32;14.80;;;9.43;;
31282;SDS011;17915;52.540;13.604;2023-04-21T03:49:57;12.60;;;9.33;;
31282;SDS011;17915;52.540;13.604;2023-04-21T03:52:23;13.53;;;9.90;;
31282;SDS011;17915;52.540;13.604;2023-04-21T03:54:48;12.00;;;9.30;;
31282;SDS011;17915;52.540;13.604;2023-04-21T03:57:14;10.97;;;9.13;;
31282;SDS011;17915;52.540;13.604;2023-04-21T03:59:39;20.23;;;10.23;;
31282;SDS011;17915;52.540;13.604;2023-04-21T04:02:05;15.52;;;10.07;;
31282;SDS011;17915;52.540;13.604;2023-04-21T04:04:31;13.20;;;9.87;;
31282;SDS011;17915;52.540;13.604;2023-04-21T04:06:56;16.00;;;9.90;;
31282;SDS011;17915;52.540;13.604;2023-04-21T04:09:22;15.93;;;10.47;;
31282;SDS011;17915;52.540;13.604;2023-04-21T04:11:47;16.33;;;9.90;;
31282;SDS011;17915;52.540;13.604;2023-04-21T04:14:13;11.60;;;9.50;;
31282;SDS011;17915;52.540;13.604;2023-04-21T04:16:38;18.80;;;10.43;;
31282;SDS011;17915;52.540;13.604;2023-04-21T04:19:04;15.40;;;9.47;;
31282;SDS011;17915;52.540;13.604;2023-04-21T04:21:29;15.27;;;10.23;;
31282;SDS011;17915;52.540;13.604;2023-04-21T04:23:56;15.48;;;10.80;;
31282;SDS011;17915;52.540;13.604;2023-04-21T04:28:49;12.82;;;10.02;;
31282;SDS011;17915;52.540;13.604;2023-04-21T04:31:15;15.05;;;9.93;;
31282;SDS011;17915;52.540;13.604;2023-04-21T04:33:41;14.48;;;9.65;;
31282;SDS011;17915;52.540;13.604;2023-04-21T04:36:06;11.83;;;9.00;;
31282;SDS011;17915;52.540;13.604;2023-04-21T04:38:32;12.13;;;9.23;;
31282;SDS011;17915;52.540;13.604;2023-04-21T04:40:59;12.85;;;10.13;;
31282;SDS011;17915;52.540;13.604;2023-04-21T04:45:51;13.07;;;8.05;;
31282;SDS011;17915;52.540;13.604;2023-04-21T04:48:17;15.10;;;10.27;;
31282;SDS011;17915;52.540;13.604;2023-04-21T04:50:42;22.93;;;10.57;;
31282;SDS011;17915;52.540;13.604;2023-04-21T04:53:08;12.48;;;9.48;;
31282;SDS011;17915;52.540;13.604;2023-04-21T04:55:34;18.07;;;11.10;;
31282;SDS011;17915;52.540;13.604;2023-04-21T04:57:59;14.23;;;10.30;;
31282;SDS011;17915;52.540;13.604;2023-04-21T05:00:26;16.50;;;10.48;;
31282;SDS011;17915;52.540;13.604;2023-04-21T05:02:52;19.45;;;9.80;;
31282;SDS011;17915;52.540;13.604;2023-04-21T05:05:18;18.90;;;9.97;;
31282;SDS011;17915;52.540;13.604;2023-04-21T05:07:45;15.63;;;9.73;;
31282;SDS011;17915;52.540;13.604;2023-04-21T05:10:11;14.70;;;9.63;;
31282;SDS011;17915;52.540;13.604;2023-04-21T05:12:36;20.57;;;11.03;;
31282;SDS011;17915;52.540;13.604;2023-04-21T05:15:02;15.47;;;10.40;;
31282;SDS011;17915;52.540;13.604;2023-04-21T05:17:27;18.40;;;11.50;;
31282;SDS011;17915;52.540;13.604;2023-04-21T05:19:55;18.73;;;9.73;;
31282;SDS011;17915;52.540;13.604;2023-04-21T05:22:20;15.17;;;10.97;;
31282;SDS011;17915;52.540;13.604;2023-04-21T05:24:45;20.57;;;9.73;;
31282;SDS011;17915;52.540;13.604;2023-04-21T05:27:11;18.83;;;10.70;;
31282;SDS011;17915;52.540;13.604;2023-04-21T05:29:36;17.87;;;10.73;;
31282;SDS011;17915;52.540;13.604;2023-04-21T05:32:02;21.80;;;10.90;;
31282;SDS011;17915;52.540;13.604;2023-04-21T05:34:27;17.17;;;11.17;;
31282;SDS011;17915;52.540;13.604;2023-04-21T05:36:52;14.77;;;9.67;;
31282;SDS011;17915;52.540;13.604;2023-04-21T05:39:18;16.20;;;9.87;;
31282;SDS011;17915;52.540;13.604;2023-04-21T05:41:43;15.53;;;10.77;;
31282;SDS011;17915;52.540;13.604;2023-04-21T05:44:09;10.60;;;8.63;;
31282;SDS011;17915;52.540;13.604;2023-04-21T05:46:34;18.90;;;10.03;;
31282;SDS011;17915;52.540;13.604;2023-04-21T05:49:00;22.10;;;10.00;;
31282;SDS011;17915;52.540;13.604;2023-04-21T05:51:28;12.43;;;9.10;;
31282;SDS011;17915;52.540;13.604;2023-04-21T05:53:54;12.27;;;9.03;;
31282;SDS011;17915;52.540;13.604;2023-04-21T05:56:19;21.80;;;12.13;;
31282;SDS011;17915;52.540;13.604;2023-04-21T05:58:45;15.30;;;10.70;;
31282;SDS011;17915;52.540;13.604;2023-04-21T06:01:11;12.27;;;9.53;;
31282;SDS011;17915;52.540;13.604;2023-04-21T06:03:37;16.63;;;10.35;;
31282;SDS011;17915;52.540;13.604;2023-04-21T06:06:03;19.20;;;9.20;;
31282;SDS011;17915;52.540;13.604;2023-04-21T06:08:29;13.82;;;9.63;;
31282;SDS011;17915;52.540;13.604;2023-04-21T06:10:55;16.40;;;9.95;;
31282;SDS011;17915;52.540;13.604;2023-04-21T06:13:20;12.77;;;8.53;;
31282;SDS011;17915;52.540;13.604;2023-04-21T06:15:46;19.60;;;10.63;;
31282;SDS011;17915;52.540;13.604;2023-04-21T06:18:11;20.03;;;10.33;;
31282;SDS011;17915;52.540;13.604;2023-04-21T06:20:37;13.10;;;8.70;;
31282;SDS011;17915;52.540;13.604;2023-04-21T06:23:02;15.63;;;9.07;;
31282;SDS011;17915;52.540;13.604;2023-04-21T06:25:27;16.03;;;9.47;;
31282;SDS011;17915;52.540;13.604;2023-04-21T06:27:54;16.48;;;10.48;;
31282;SDS011;17915;52.540;13.604;2023-04-21T06:30:20;18.98;;;10.38;;
31282;SDS011;17915;52.540;13.604;2023-04-21T06:32:45;16.00;;;8.83;;
31282;SDS011;17915;52.540;13.604;2023-04-21T06:35:12;14.20;;;9.52;;
31282;SDS011;17915;52.540;13.604;2023-04-21T06:40:04;24.05;;;10.70;;
31282;SDS011;17915;52.540;13.604;2023-04-21T06:42:30;16.27;;;10.50;;
31282;SDS011;17915;52.540;13.604;2023-04-21T06:44:55;16.67;;;10.30;;
31282;SDS011;17915;52.540;13.604;2023-04-21T06:47:20;11.47;;;10.03;;
31282;SDS011;17915;52.540;13.604;2023-04-21T06:49:46;23.47;;;11.07;;
31282;SDS011;17915;52.540;13.604;2023-04-21T06:52:11;12.23;;;8.63;;
31282;SDS011;17915;52.540;13.604;2023-04-21T06:54:37;15.87;;;9.83;;
31282;SDS011;17915;52.540;13.604;2023-04-21T06:57:02;21.17;;;10.73;;
31282;SDS011;17915;52.540;13.604;2023-04-21T06:59:28;13.10;;;8.73;;
31282;SDS011;17915;52.540;13.604;2023-04-21T07:01:53;16.80;;;10.07;;
31282;SDS011;17915;52.540;13.604;2023-04-21T07:04:18;15.43;;;10.93;;
31282;SDS011;17915;52.540;13.604;2023-04-21T07:06:44;12.20;;;8.67;;
31282;SDS011;17915;52.540;13.604;2023-04-21T07:09:10;14.15;;;10.32;;
31282;SDS011;17915;52.540;13.604;2023-04-21T07:11:35;21.90;;;9.30;;
31282;SDS011;17915;52.540;13.604;2023-04-21T07:14:00;16.50;;;8.67;;
31282;SDS011;17915;52.540;13.604;2023-04-21T07:16:26;9.57;;;8.57;;
31282;SDS011;17915;52.540;13.604;2023-04-21T07:18:52;31.40;;;12.45;;
31282;SDS011;17915;52.540;13.604;2023-04-21T07:21:18;15.77;;;8.93;;
31282;SDS011;17915;52.540;13.604;2023-04-21T07:23:43;13.53;;;9.10;;
31282;SDS011;17915;52.540;13.604;2023-04-21T07:26:08;15.37;;;9.40;;
31282;SDS011;17915;52.540;13.604;2023-04-21T07:28:34;17.23;;;9.00;;
31282;SDS011;17915;52.540;13.604;2023-04-21T07:30:59;12.63;;;9.77;;
31282;SDS011;17915;52.540;13.604;2023-04-21T07:33:25;16.00;;;9.30;;
31282;SDS011;17915;52.540;13.604;2023-04-21T07:35:50;16.33;;;10.00;;
31282;SDS011;17915;52.540;13.604;2023-04-21T07:38:15;19.40;;;11.50;;
31282;SDS011;17915;52.540;13.604;2023-04-21T07:40:41;23.20;;;11.33;;
31282;SDS011;17915;52.540;13.604;2023-04-21T07:43:06;14.40;;;9.70;;
31282;SDS011;17915;52.540;13.604;2023-04-21T07:45:32;15.50;;;8.63;;
31282;SDS011;17915;52.540;13.604;2023-04-21T07:47:57;11.97;;;8.67;;
31282;SDS011;17915;52.540;13.604;2023-04-21T07:50:23;12.57;;;8.80;;
31282;SDS011;17915;52.540;13.604;2023-04-21T07:52:48;14.37;;;9.10;;
31282;SDS011;17915;52.540;13.604;2023-04-21T07:55:14;17.20;;;8.87;;
31282;SDS011;17915;52.540;13.604;2023-04-21T07:57:39;15.67;;;10.03;;
31282;SDS011;17915;52.540;13.604;2023-04-21T08:00:05;14.07;;;9.17;;
31282;SDS011;17915;52.540;13.604;2023-04-21T08:02:31;18.85;;;8.85;;
31282;SDS011;17915;52.540;13.604;2023-04-21T08:04:57;14.97;;;9.70;;
31282;SDS011;17915;52.540;13.604;2023-04-21T08:07:22;20.93;;;8.97;;
31282;SDS011;17915;52.540;13.604;2023-04-21T08:09:47;13.57;;;9.30;;
31282;SDS011;17915;52.540;13.604;2023-04-21T08:12:13;17.07;;;9.37;;
31282;SDS011;17915;52.540;13.604;2023-04-21T08:14:38;18.30;;;10.00;;
31282;SDS011;17915;52.540;13.604;2023-04-21T08:17:04;12.38;;;8.55;;
31282;SDS011;17915;52.540;13.604;2023-04-21T08:19:30;10.33;;;8.40;;
31282;SDS011;17915;52.540;13.604;2023-04-21T08:21:55;13.53;;;10.07;;
31282;SDS011;17915;52.540;13.604;2023-04-21T08:24:21;14.05;;;9.27;;
31282;SDS011;17915;52.540;13.604;2023-04-21T08:26:47;11.70;;;9.03;;
31282;SDS011;17915;52.540;13.604;2023-04-21T08:29:12;10.53;;;9.20;;
31282;SDS011;17915;52.540;13.604;2023-04-21T08:31:38;13.00;;;8.52;;
31282;SDS011;17915;52.540;13.604;2023-04-21T08:34:03;16.40;;;9.57;;
31282;SDS011;17915;52.540;13.604;2023-04-21T08:36:29;13.23;;;8.27;;
31282;SDS011;17915;52.540;13.604;2023-04-21T08:38:55;14.32;;;8.38;;
31282;SDS011;17915;52.540;13.604;2023-04-21T08:41:21;13.27;;;9.15;;
31282;SDS011;17915;52.540;13.604;2023-04-21T08:43:46;17.13;;;8.50;;
31282;SDS011;17915;52.540;13.604;2023-04-21T08:46:12;13.77;;;9.07;;
31282;SDS011;17915;52.540;13.604;2023-04-21T08:48:37;15.87;;;8.90;;
31282;SDS011;17915;52.540;13.604;2023-04-21T08:51:05;14.10;;;8.30;;
31282;SDS011;17915;52.540;13.604;2023-04-21T08:53:33;13.98;;;9.23;;
31282;SDS011;17915;52.540;13.604;2023-04-21T08:55:59;12.23;;;9.70;;
31282;SDS011;17915;52.540;13.604;2023-04-21T08:58:25;11.10;;;7.87;;
31282;SDS011;17915;52.540;13.604;2023-04-21T09:00:50;10.47;;;8.57;;
31282;SDS011;17915;52.540;13.604;2023-04-21T09:03:22;8.53;;;7.70;;
31282;SDS011;17915;52.540;13.604;2023-04-21T09:05:57;14.90;;;8.77;;
31282;SDS011;17915;52.540;13.604;2023-04-21T09:08:23;14.25;;;8.55;;
31282;SDS011;17915;52.540;13.604;2023-04-21T09:10:53;12.35;;;8.45;;
31282;SDS011;17915;52.540;13.604;2023-04-21T09:13:19;10.23;;;8.82;;
31282;SDS011;17915;52.540;13.604;2023-04-21T09:15:48;16.77;;;10.20;;
31282;SDS011;17915;52.540;13.604;2023-04-21T09:18:20;11.57;;;8.43;;
31282;SDS011;17915;52.540;13.604;2023-04-21T09:20:47;14.63;;;8.05;;
31282;SDS011;17915;52.540;13.604;2023-04-21T09:23:14;11.13;;;7.68;;
31282;SDS011;17915;52.540;13.604;2023-04-21T09:25:40;11.33;;;8.23;;
31282;SDS011;17915;52.540;13.604;2023-04-21T09:28:10;18.70;;;8.75;;
31282;SDS011;17915;52.540;13.604;2023-04-21T09:30:37;12.00;;;8.20;;
31282;SDS011;17915;52.540;13.604;2023-04-21T09:33:03;9.48;;;8.27;;
31282;SDS011;17915;52.540;13.604;2023-04-21T09:35:33;10.40;;;8.05;;
31282;SDS011;17915;52.540;13.604;2023-04-21T09:38:01;11.63;;;7.38;;
31282;SDS011;17915;52.540;13.604;2023-04-21T09:40:30;14.00;;;8.35;;
31282;SDS011;17915;52.540;13.604;2023-04-21T09:42:55;10.45;;;8.02;;
31282;SDS011;17915;52.540;13.604;2023-04-21T09:45:27;8.87;;;7.07;;
31282;SDS011;17915;52.540;13.604;2023-04-21T09:47:57;18.02;;;7.15;;
31282;SDS011;17915;52.540;13.604;2023-04-21T09:50:28;9.35;;;7.50;;
31282;SDS011;17915;52.540;13.604;2023-04-21T09:52:54;13.63;;;7.45;;
31282;SDS011;17915;52.540;13.604;2023-04-21T09:55:25;11.98;;;7.53;;
31282;SDS011;17915;52.540;13.604;2023-04-21T09:57:55;13.13;;;6.80;;
31282;SDS011;17915;52.540;13.604;2023-04-21T10:00:22;9.15;;;7.50;;
31282;SDS011;17915;52.540;13.604;2023-04-21T10:02:51;11.02;;;6.38;;
31282;SDS011;17915;52.540;13.604;2023-04-21T10:05:18;10.13;;;7.90;;
31282;SDS011;17915;52.540;13.604;2023-04-21T10:07:43;11.10;;;7.53;;
31282;SDS011;17915;52.540;13.604;2023-04-21T10:10:15;8.93;;;6.88;;
31282;SDS011;17915;52.540;13.604;2023-04-21T10:12:44;15.50;;;8.52;;
31282;SDS011;17915;52.540;13.604;2023-04-21T10:15:27;13.45;;;8.98;;
31282;SDS011;17915;52.540;13.604;2023-04-21T10:23:25;13.13;;;7.72;;
31282;SDS011;17915;52.540;13.604;2023-04-21T10:25:51;13.85;;;6.53;;
31282;SDS011;17915;52.540;13.604;2023-04-21T10:28:17;21.70;;;8.05;;
31282;SDS011;17915;52.540;13.604;2023-04-21T10:30:43;7.33;;;6.63;;
31282;SDS011;17915;52.540;13.604;2023-04-21T10:33:08;12.03;;;7.77;;
31282;SDS011;17915;52.540;13.604;2023-04-21T10:38:42;7.93;;;6.47;;
31282;SDS011;17915;52.540;13.604;2023-04-21T10:43:59;11.50;;;7.20;;
31282;SDS011;17915;52.540;13.604;2023-04-21T10:49:03;7.22;;;6.20;;
31282;SDS011;17915;52.540;13.604;2023-04-21T10:54:21;7.85;;;6.60;;
31282;SDS011;17915;52.540;13.604;2023-04-21T10:56:51;9.18;;;7.47;;
31282;SDS011;17915;52.540;13.604;2023-04-21T10:59:17;7.63;;;6.72;;
31282;SDS011;17915;52.540;13.604;2023-04-21T11:01:43;8.43;;;7.18;;
31282;SDS011;17915;52.540;13.604;2023-04-21T11:04:12;8.02;;;7.10;;
31282;SDS011;17915;52.540;13.604;2023-04-21T11:06:38;11.38;;;8.10;;
31282;SDS011;17915;52.540;13.604;2023-04-21T11:09:04;10.03;;;6.20;;
31282;SDS011;17915;52.540;13.604;2023-04-21T11:11:29;7.33;;;6.53;;
31282;SDS011;17915;52.540;13.604;2023-04-21T11:13:55;14.83;;;7.07;;
31282;SDS011;17915;52.540;13.604;2023-04-21T11:16:24;6.75;;;6.15;;
31282;SDS011;17915;52.540;13.604;2023-04-21T11:18:49;7.73;;;6.13;;
31282;SDS011;17915;52.540;13.604;2023-04-21T11:21:16;10.38;;;7.10;;
31282;SDS011;17915;52.540;13.604;2023-04-21T11:26:16;11.38;;;6.50;;
31282;SDS011;17915;52.540;13.604;2023-04-21T11:28:46;8.82;;;5.97;;
31282;SDS011;17915;52.540;13.604;2023-04-21T11:31:11;7.47;;;6.78;;
31282;SDS011;17915;52.540;13.604;2023-04-21T11:33:37;8.17;;;6.77;;
31282;SDS011;17915;52.540;13.604;2023-04-21T11:36:04;8.73;;;6.47;;
31282;SDS011;17915;52.540;13.604;2023-04-21T11:38:39;12.70;;;6.95;;
31282;SDS011;17915;52.540;13.604;2023-04-21T11:41:05;12.45;;;7.53;;
31282;SDS011;17915;52.540;13.604;2023-04-21T11:43:31;6.95;;;6.45;;
31282;SDS011;17915;52.540;13.604;2023-04-21T11:46:12;10.03;;;6.70;;
31282;SDS011;17915;52.540;13.604;2023-04-21T11:48:41;14.48;;;6.38;;
31282;SDS011;17915;52.540;13.604;2023-04-21T11:51:13;9.48;;;7.95;;
31282;SDS011;17915;52.540;13.604;2023-04-21T11:53:39;11.63;;;7.43;;
31282;SDS011;17915;52.540;13.604;2023-04-21T11:56:05;10.85;;;6.57;;
31282;SDS011;17915;52.540;13.604;2023-04-21T11:58:30;6.47;;;5.60;;
31282;SDS011;17915;52.540;13.604;2023-04-21T12:00:56;8.40;;;5.63;;
31282;SDS011;17915;52.540;13.604;2023-04-21T12:03:21;9.13;;;7.27;;
31282;SDS011;17915;52.540;13.604;2023-04-21T12:05:54;7.85;;;7.07;;
31282;SDS011;17915;52.540;13.604;2023-04-21T12:08:20;9.52;;;6.20;;
31282;SDS011;17915;52.540;13.604;2023-04-21T12:10:45;6.33;;;5.60;;
31282;SDS011;17915;52.540;13.604;2023-04-21T12:13:17;6.63;;;6.00;;
31282;SDS011;17915;52.540;13.604;2023-04-21T12:15:46;6.75;;;6.15;;
31282;SDS011;17915;52.540;13.604;2023-04-21T12:20:38;10.65;;;5.07;;
31282;SDS011;17915;52.540;13.604;2023-04-21T12:23:03;9.53;;;5.53;;
31282;SDS011;17915;52.540;13.604;2023-04-21T12:25:29;12.73;;;5.70;;
31282;SDS011;17915;52.540;13.604;2023-04-21T12:27:57;8.83;;;5.83;;
31282;SDS011;17915;52.540;13.604;2023-04-21T12:30:23;8.40;;;5.70;;
31282;SDS011;17915;52.540;13.604;2023-04-21T12:32:48;20.53;;;5.40;;
31282;SDS011;17915;52.540;13.604;2023-04-21T12:35:16;6.90;;;6.03;;
31282;SDS011;17915;52.540;13.604;2023-04-21T12:37:41;9.10;;;6.67;;
31282;SDS011;17915;52.540;13.604;2023-04-21T12:40:07;7.60;;;5.27;;
31282;SDS011;17915;52.540;13.604;2023-04-21T12:42:32;11.70;;;6.13;;
31282;SDS011;17915;52.540;13.604;2023-04-21T12:44:58;10.63;;;5.27;;
31282;SDS011;17915;52.540;13.604;2023-04-21T12:47:23;6.40;;;5.90;;
31282;SDS011;17915;52.540;13.604;2023-04-21T12:49:49;5.87;;;5.37;;
31282;SDS011;17915;52.540;13.604;2023-04-21T12:52:14;5.30;;;4.80;;
31282;SDS011;17915;52.540;13.604;2023-04-21T12:54:39;5.00;;;4.60;;
31282;SDS011;17915;52.540;13.604;2023-04-21T12:57:05;5.32;;;4.60;;
31282;SDS011;17915;52.540;13.604;2023-04-21T12:59:31;10.70;;;4.67;;
31282;SDS011;17915;52.540;13.604;2023-04-21T13:01:56;6.30;;;5.30;;
31282;SDS011;17915;52.540;13.604;2023-04-21T13:04:22;7.17;;;4.60;;
31282;SDS011;17915;52.540;13.604;2023-04-21T13:06:47;7.60;;;5.97;;
31282;SDS011;17915;52.540;13.604;2023-04-21T13:09:12;5.63;;;5.03;;
31282;SDS011;17915;52.540;13.604;2023-04-21T13:11:38;7.73;;;5.97;;
31282;SDS011;17915;52.540;13.604;2023-04-21T13:14:03;9.10;;;6.60;;
31282;SDS011;17915;52.540;13.604;2023-04-21T13:16:29;7.57;;;5.47;;
31282;SDS011;17915;52.540;13.604;2023-04-21T13:18:55;6.80;;;5.72;;
31282;SDS011;17915;52.540;13.604;2023-04-21T13:21:20;11.00;;;5.13;;
31282;SDS011;17915;52.540;13.604;2023-04-21T13:23:46;5.77;;;5.27;;
31282;SDS011;17915;52.540;13.604;2023-04-21T13:26:11;6.87;;;5.90;;
31282;SDS011;17915;52.540;13.604;2023-04-21T13:28:37;12.63;;;5.47;;
31282;SDS011;17915;52.540;13.604;2023-04-21T13:31:02;5.27;;;4.80;;
31282;SDS011;17915;52.540;13.604;2023-04-21T13:33:28;7.33;;;5.37;;
31282;SDS011;17915;52.540;13.604;2023-04-21T13:35:53;10.17;;;5.53;;
31282;SDS011;17915;52.540;13.604;2023-04-21T13:38:19;10.50;;;5.63;;
31282;SDS011;17915;52.540;13.604;2023-04-21T13:40:44;6.20;;;4.65;;
31282;SDS011;17915;52.540;13.604;2023-04-21T13:43:11;5.35;;;4.90;;
31282;SDS011;17915;52.540;13.604;2023-04-21T13:45:36;6.60;;;5.47;;
31282;SDS011;17915;52.540;13.604;2023-04-21T13:48:02;7.30;;;4.90;;
31282;SDS011;17915;52.540;13.604;2023-04-21T13:50:28;8.63;;;5.18;;
31282;SDS011;17915;52.540;13.604;2023-04-21T13:52:53;8.60;;;5.83;;
31282;SDS011;17915;52.540;13.604;2023-04-21T13:55:18;11.10;;;6.77;;
31282;SDS011;17915;52.540;13.604;2023-04-21T13:57:44;9.82;;;5.35;;
31282;SDS011;17915;52.540;13.604;2023-04-21T14:00:10;12.90;;;5.93;;
31282;SDS011;17915;52.540;13.604;2023-04-21T14:02:37;7.18;;;4.95;;
31282;SDS011;17915;52.540;13.604;2023-04-21T14:05:03;4.95;;;4.50;;
31282;SDS011;17915;52.540;13.604;2023-04-21T14:07:29;6.93;;;5.38;;
31282;SDS011;17915;52.540;13.604;2023-04-21T14:09:55;6.97;;;5.68;;
31282;SDS011;17915;52.540;13.604;2023-04-21T14:12:21;8.07;;;5.03;;
31282;SDS011;17915;52.540;13.604;2023-04-21T14:14:46;5.73;;;4.87;;
31282;SDS011;17915;52.540;13.604;2023-04-21T14:17:12;7.43;;;5.57;;
31282;SDS011;17915;52.540;13.604;2023-04-21T14:19:39;5.55;;;5.05;;
31282;SDS011;17915;52.540;13.604;2023-04-21T14:22:05;6.10;;;5.50;;
31282;SDS011;17915;52.540;13.604;2023-04-21T14:24:30;6.97;;;5.77;;
31282;SDS011;17915;52.540;13.604;2023-04-21T14:26:56;5.95;;;5.35;;
31282;SDS011;17915;52.540;13.604;2023-04-21T14:29:21;9.20;;;5.10;;
31282;SDS011;17915;52.540;13.604;2023-04-21T14:31:47;7.07;;;5.20;;
31282;SDS011;17915;52.540;13.604;2023-04-21T14:34:12;5.53;;;4.90;;
31282;SDS011;17915;52.540;13.604;2023-04-21T14:36:38;9.30;;;5.07;;
31282;SDS011;17915;52.540;13.604;2023-04-21T14:39:03;11.80;;;5.17;;
31282;SDS011;17915;52.540;13.604;2023-04-21T14:41:29;4.73;;;4.33;;
31282;SDS011;17915;52.540;13.604;2023-04-21T14:43:54;5.37;;;4.87;;
31282;SDS011;17915;52.540;13.604;2023-04-21T14:46:21;8.75;;;5.28;;